sensor_id;sensor_type;location;lat;lon;timestamp;P1;durP1;ratioP1;P2;durP2;ratioP2
3068;SDS011;1545;51.728;8.796;2022-09-01T00:01:41;7.03;;;2.73;;
3068;SDS011;1545;51.728;8.796;2022-09-01T00:04:09;9.13;;;2.23;;
3068;SDS011;1545;51.728;8.796;2022-09-01T00:06:37;6.70;;;2.50;;
3068;SDS011;1545;51.728;8.796;2022-09-01T00:09:05;3.20;;;2.43;;
3068;SDS011;1545;51.728;8.796;2022-09-01T00:11:33;6.83;;;2.77;;
3068;SDS011;1545;51.728;8.796;2022-09-01T00:13:59;10.03;;;2.70;;
3068;SDS011;1545;51.728;8.796;2022-09-01T00:16:26;7.43;;;2.83;;
3068;SDS011;1545;51.728;8.796;2022-09-01T00:18:54;4.40;;;2.20;;
3068;SDS011;1545;51.728;8.796;2022-09-01T00:21:25;3.00;;;2.30;;
3068;SDS011;1545;51.728;8.796;2022-09-01T00:23:53;5.87;;;2.80;;
3068;SDS011;1545;51.728;8.796;2022-09-01T00:26:18;5.60;;;2.40;;
3068;SDS011;1545;51.728;8.796;2022-09-01T00:28:44;2.77;;;2.40;;
3068;SDS011;1545;51.728;8.796;2022-09-01T00:31:10;5.40;;;2.40;;
3068;SDS011;1545;51.728;8.796;2022-09-01T00:33:37;4.30;;;2.53;;
3068;SDS011;1545;51.728;8.796;2022-09-01T00:36:03;9.77;;;2.97;;
3068;SDS011;1545;51.728;8.796;2022-09-01T00:38:29;5.67;;;2.97;;
3068;SDS011;1545;51.728;8.796;2022-09-01T00:40:55;9.57;;;2.80;;
3068;SDS011;1545;51.728;8.796;2022-09-01T00:46:08;6.90;;;3.07;;
3068;SDS011;1545;51.728;8.796;2022-09-01T00:48:36;6.23;;;2.80;;
3068;SDS011;1545;51.728;8.796;2022-09-01T00:51:03;3.60;;;2.70;;
3068;SDS011;1545;51.728;8.796;2022-09-01T00:53:30;3.37;;;2.60;;
3068;SDS011;1545;51.728;8.796;2022-09-01T00:55:56;5.67;;;2.83;;
3068;SDS011;1545;51.728;8.796;2022-09-01T00:58:22;14.23;;;2.87;;
3068;SDS011;1545;51.728;8.796;2022-09-01T01:00:48;7.97;;;2.70;;
3068;SDS011;1545;51.728;8.796;2022-09-01T01:03:16;7.23;;;2.83;;
3068;SDS011;1545;51.728;8.796;2022-09-01T01:05:50;4.37;;;2.53;;
3068;SDS011;1545;51.728;8.796;2022-09-01T01:08:23;4.57;;;2.50;;
3068;SDS011;1545;51.728;8.796;2022-09-01T01:10:59;5.43;;;2.70;;
3068;SDS011;1545;51.728;8.796;2022-09-01T01:13:26;4.87;;;2.50;;
3068;SDS011;1545;51.728;8.796;2022-09-01T01:15:52;17.90;;;3.07;;
3068;SDS011;1545;51.728;8.796;2022-09-01T01:18:18;4.77;;;2.43;;
3068;SDS011;1545;51.728;8.796;2022-09-01T01:20:43;4.63;;;2.70;;
3068;SDS011;1545;51.728;8.796;2022-09-01T01:23:39;4.23;;;2.70;;
3068;SDS011;1545;51.728;8.796;2022-09-01T01:26:12;5.87;;;2.50;;
3068;SDS011;1545;51.728;8.796;2022-09-01T01:28:39;2.90;;;2.60;;
3068;SDS011;1545;51.728;8.796;2022-09-01T01:31:10;3.73;;;2.60;;
3068;SDS011;1545;51.728;8.796;2022-09-01T01:33:40;4.17;;;2.80;;
3068;SDS011;1545;51.728;8.796;2022-09-01T01:36:14;7.80;;;2.80;;
3068;SDS011;1545;51.728;8.796;2022-09-01T01:38:48;4.77;;;2.77;;
3068;SDS011;1545;51.728;8.796;2022-09-01T01:41:15;4.17;;;2.90;;
3068;SDS011;1545;51.728;8.796;2022-09-01T01:43:43;2.53;;;2.37;;
3068;SDS011;1545;51.728;8.796;2022-09-01T01:46:09;3.77;;;2.77;;
3068;SDS011;1545;51.728;8.796;2022-09-01T01:48:37;5.63;;;3.07;;
3068;SDS011;1545;51.728;8.796;2022-09-01T01:51:05;5.07;;;2.87;;
3068;SDS011;1545;51.728;8.796;2022-09-01T01:53:31;3.57;;;2.40;;
3068;SDS011;1545;51.728;8.796;2022-09-01T01:55:57;3.33;;;2.63;;
3068;SDS011;1545;51.728;8.796;2022-09-01T01:58:25;3.90;;;2.80;;
3068;SDS011;1545;51.728;8.796;2022-09-01T02:00:52;5.90;;;2.80;;
3068;SDS011;1545;51.728;8.796;2022-09-01T02:03:19;5.37;;;2.67;;
3068;SDS011;1545;51.728;8.796;2022-09-01T02:05:49;3.47;;;2.70;;
3068;SDS011;1545;51.728;8.796;2022-09-01T02:08:15;3.03;;;2.50;;
3068;SDS011;1545;51.728;8.796;2022-09-01T02:10:45;6.87;;;3.30;;
3068;SDS011;1545;51.728;8.796;2022-09-01T02:13:12;5.77;;;2.60;;
3068;SDS011;1545;51.728;8.796;2022-09-01T02:15:44;4.87;;;3.03;;
3068;SDS011;1545;51.728;8.796;2022-09-01T02:18:16;3.07;;;2.70;;
3068;SDS011;1545;51.728;8.796;2022-09-01T02:20:44;7.53;;;2.80;;
3068;SDS011;1545;51.728;8.796;2022-09-01T02:23:14;4.50;;;2.70;;
3068;SDS011;1545;51.728;8.796;2022-09-01T02:25:43;3.53;;;2.50;;
3068;SDS011;1545;51.728;8.796;2022-09-01T02:28:13;10.23;;;2.90;;
3068;SDS011;1545;51.728;8.796;2022-09-01T02:30:40;5.93;;;2.90;;
3068;SDS011;1545;51.728;8.796;2022-09-01T02:33:07;4.27;;;2.90;;
3068;SDS011;1545;51.728;8.796;2022-09-01T02:35:33;3.13;;;2.73;;
3068;SDS011;1545;51.728;8.796;2022-09-01T02:38:01;4.40;;;2.90;;
3068;SDS011;1545;51.728;8.796;2022-09-01T02:40:29;6.90;;;3.07;;
3068;SDS011;1545;51.728;8.796;2022-09-01T02:42:55;3.50;;;2.80;;
3068;SDS011;1545;51.728;8.796;2022-09-01T02:45:22;9.87;;;3.30;;
3068;SDS011;1545;51.728;8.796;2022-09-01T02:47:48;6.47;;;2.63;;
3068;SDS011;1545;51.728;8.796;2022-09-01T02:50:15;5.33;;;3.03;;
3068;SDS011;1545;51.728;8.796;2022-09-01T02:52:42;4.73;;;3.10;;
3068;SDS011;1545;51.728;8.796;2022-09-01T02:55:16;3.93;;;2.97;;
3068;SDS011;1545;51.728;8.796;2022-09-01T02:57:46;3.87;;;3.20;;
3068;SDS011;1545;51.728;8.796;2022-09-01T03:00:13;5.57;;;3.47;;
3068;SDS011;1545;51.728;8.796;2022-09-01T03:03:00;5.33;;;3.00;;
3068;SDS011;1545;51.728;8.796;2022-09-01T03:05:28;7.80;;;3.20;;
3068;SDS011;1545;51.728;8.796;2022-09-01T03:07:56;6.53;;;3.17;;
3068;SDS011;1545;51.728;8.796;2022-09-01T03:10:24;5.10;;;3.20;;
3068;SDS011;1545;51.728;8.796;2022-09-01T03:12:55;3.83;;;3.20;;
3068;SDS011;1545;51.728;8.796;2022-09-01T03:15:21;3.80;;;3.10;;
3068;SDS011;1545;51.728;8.796;2022-09-01T03:17:47;5.87;;;3.33;;
3068;SDS011;1545;51.728;8.796;2022-09-01T03:20:13;5.37;;;3.13;;
3068;SDS011;1545;51.728;8.796;2022-09-01T03:22:40;8.70;;;3.07;;
3068;SDS011;1545;51.728;8.796;2022-09-01T03:25:08;6.87;;;3.17;;
3068;SDS011;1545;51.728;8.796;2022-09-01T03:27:33;3.23;;;2.97;;
3068;SDS011;1545;51.728;8.796;2022-09-01T03:29:59;4.03;;;3.10;;
3068;SDS011;1545;51.728;8.796;2022-09-01T03:32:25;3.90;;;3.10;;
3068;SDS011;1545;51.728;8.796;2022-09-01T03:34:50;8.43;;;3.20;;
3068;SDS011;1545;51.728;8.796;2022-09-01T03:37:16;7.50;;;3.10;;
3068;SDS011;1545;51.728;8.796;2022-09-01T03:39:42;6.10;;;3.00;;
3068;SDS011;1545;51.728;8.796;2022-09-01T03:42:08;10.00;;;2.90;;
3068;SDS011;1545;51.728;8.796;2022-09-01T03:44:36;6.03;;;3.10;;
3068;SDS011;1545;51.728;8.796;2022-09-01T03:47:04;5.13;;;3.40;;
3068;SDS011;1545;51.728;8.796;2022-09-01T03:49:34;5.23;;;3.43;;
3068;SDS011;1545;51.728;8.796;2022-09-01T03:52:03;5.40;;;3.47;;
3068;SDS011;1545;51.728;8.796;2022-09-01T03:54:29;7.27;;;3.57;;
3068;SDS011;1545;51.728;8.796;2022-09-01T03:56:56;7.90;;;3.57;;
3068;SDS011;1545;51.728;8.796;2022-09-01T03:59:23;6.97;;;3.20;;
3068;SDS011;1545;51.728;8.796;2022-09-01T04:01:49;7.43;;;3.30;;
3068;SDS011;1545;51.728;8.796;2022-09-01T04:04:15;5.57;;;3.00;;
3068;SDS011;1545;51.728;8.796;2022-09-01T04:06:41;5.07;;;3.20;;
3068;SDS011;1545;51.728;8.796;2022-09-01T04:09:09;5.37;;;3.03;;
3068;SDS011;1545;51.728;8.796;2022-09-01T04:11:35;5.33;;;3.40;;
3068;SDS011;1545;51.728;8.796;2022-09-01T04:14:03;4.40;;;3.03;;
3068;SDS011;1545;51.728;8.796;2022-09-01T04:16:30;4.93;;;3.00;;
3068;SDS011;1545;51.728;8.796;2022-09-01T04:19:17;7.43;;;3.23;;
3068;SDS011;1545;51.728;8.796;2022-09-01T04:21:48;5.13;;;3.00;;
3068;SDS011;1545;51.728;8.796;2022-09-01T04:24:14;8.33;;;3.53;;
3068;SDS011;1545;51.728;8.796;2022-09-01T04:26:42;4.27;;;3.27;;
3068;SDS011;1545;51.728;8.796;2022-09-01T04:29:09;7.97;;;3.27;;
3068;SDS011;1545;51.728;8.796;2022-09-01T04:31:36;4.50;;;3.30;;
3068;SDS011;1545;51.728;8.796;2022-09-01T04:34:04;4.10;;;3.23;;
3068;SDS011;1545;51.728;8.796;2022-09-01T04:36:38;9.57;;;3.43;;
3068;SDS011;1545;51.728;8.796;2022-09-01T04:39:05;5.27;;;3.57;;
3068;SDS011;1545;51.728;8.796;2022-09-01T04:41:36;16.13;;;3.93;;
3068;SDS011;1545;51.728;8.796;2022-09-01T04:44:05;9.60;;;3.37;;
3068;SDS011;1545;51.728;8.796;2022-09-01T04:46:35;10.47;;;3.70;;
3068;SDS011;1545;51.728;8.796;2022-09-01T04:49:05;5.00;;;3.40;;
3068;SDS011;1545;51.728;8.796;2022-09-01T04:51:34;6.33;;;3.60;;
3068;SDS011;1545;51.728;8.796;2022-09-01T04:54:03;20.07;;;3.60;;
3068;SDS011;1545;51.728;8.796;2022-09-01T04:56:33;10.00;;;3.80;;
3068;SDS011;1545;51.728;8.796;2022-09-01T04:58:59;10.10;;;3.83;;
3068;SDS011;1545;51.728;8.796;2022-09-01T05:01:25;10.47;;;3.57;;
3068;SDS011;1545;51.728;8.796;2022-09-01T05:03:51;6.67;;;3.80;;
3068;SDS011;1545;51.728;8.796;2022-09-01T05:06:25;6.53;;;3.30;;
3068;SDS011;1545;51.728;8.796;2022-09-01T05:08:52;5.47;;;3.50;;
3068;SDS011;1545;51.728;8.796;2022-09-01T05:11:20;8.87;;;3.80;;
3068;SDS011;1545;51.728;8.796;2022-09-01T05:13:48;4.73;;;3.20;;
3068;SDS011;1545;51.728;8.796;2022-09-01T05:16:15;5.63;;;3.23;;
3068;SDS011;1545;51.728;8.796;2022-09-01T05:18:43;6.50;;;3.20;;
3068;SDS011;1545;51.728;8.796;2022-09-01T05:21:11;3.77;;;3.20;;
3068;SDS011;1545;51.728;8.796;2022-09-01T05:23:40;7.93;;;3.17;;
3068;SDS011;1545;51.728;8.796;2022-09-01T05:26:17;5.80;;;3.30;;
3068;SDS011;1545;51.728;8.796;2022-09-01T05:28:45;9.23;;;3.40;;
3068;SDS011;1545;51.728;8.796;2022-09-01T05:31:12;7.00;;;3.00;;
3068;SDS011;1545;51.728;8.796;2022-09-01T05:33:38;7.73;;;3.40;;
3068;SDS011;1545;51.728;8.796;2022-09-01T05:36:10;5.47;;;3.03;;
3068;SDS011;1545;51.728;8.796;2022-09-01T05:38:36;5.90;;;3.33;;
3068;SDS011;1545;51.728;8.796;2022-09-01T05:41:05;7.73;;;3.03;;
3068;SDS011;1545;51.728;8.796;2022-09-01T05:43:32;5.37;;;3.10;;
3068;SDS011;1545;51.728;8.796;2022-09-01T05:46:00;5.53;;;3.10;;
3068;SDS011;1545;51.728;8.796;2022-09-01T05:48:27;10.17;;;3.00;;
3068;SDS011;1545;51.728;8.796;2022-09-01T05:50:55;5.77;;;3.10;;
3068;SDS011;1545;51.728;8.796;2022-09-01T05:53:22;5.53;;;2.70;;
3068;SDS011;1545;51.728;8.796;2022-09-01T05:55:50;4.03;;;2.90;;
3068;SDS011;1545;51.728;8.796;2022-09-01T05:58:21;4.00;;;2.93;;
3068;SDS011;1545;51.728;8.796;2022-09-01T06:00:49;9.03;;;3.20;;
3068;SDS011;1545;51.728;8.796;2022-09-01T06:03:17;15.43;;;3.43;;
3068;SDS011;1545;51.728;8.796;2022-09-01T06:05:43;6.53;;;2.83;;
3068;SDS011;1545;51.728;8.796;2022-09-01T06:08:12;7.73;;;2.80;;
3068;SDS011;1545;51.728;8.796;2022-09-01T06:10:39;14.50;;;3.30;;
3068;SDS011;1545;51.728;8.796;2022-09-01T06:13:06;5.93;;;2.70;;
3068;SDS011;1545;51.728;8.796;2022-09-01T06:15:33;5.27;;;3.13;;
3068;SDS011;1545;51.728;8.796;2022-09-01T06:18:03;7.13;;;2.90;;
3068;SDS011;1545;51.728;8.796;2022-09-01T06:20:37;3.57;;;2.73;;
3068;SDS011;1545;51.728;8.796;2022-09-01T06:23:04;3.33;;;2.37;;
3068;SDS011;1545;51.728;8.796;2022-09-01T06:25:30;17.30;;;2.63;;
3068;SDS011;1545;51.728;8.796;2022-09-01T06:27:56;5.13;;;2.80;;
3068;SDS011;1545;51.728;8.796;2022-09-01T06:30:22;6.17;;;2.50;;
3068;SDS011;1545;51.728;8.796;2022-09-01T06:32:50;4.40;;;2.70;;
3068;SDS011;1545;51.728;8.796;2022-09-01T06:35:17;7.70;;;3.80;;
3068;SDS011;1545;51.728;8.796;2022-09-01T06:37:43;6.13;;;2.70;;
3068;SDS011;1545;51.728;8.796;2022-09-01T06:40:11;5.07;;;2.47;;
3068;SDS011;1545;51.728;8.796;2022-09-01T06:42:48;3.57;;;2.30;;
3068;SDS011;1545;51.728;8.796;2022-09-01T06:45:16;10.27;;;2.40;;
3068;SDS011;1545;51.728;8.796;2022-09-01T06:47:45;11.77;;;2.30;;
3068;SDS011;1545;51.728;8.796;2022-09-01T06:50:12;13.13;;;2.57;;
3068;SDS011;1545;51.728;8.796;2022-09-01T06:52:41;4.50;;;2.40;;
3068;SDS011;1545;51.728;8.796;2022-09-01T06:55:07;8.47;;;2.53;;
3068;SDS011;1545;51.728;8.796;2022-09-01T06:57:34;4.23;;;2.40;;
3068;SDS011;1545;51.728;8.796;2022-09-01T07:00:02;5.30;;;2.10;;
3068;SDS011;1545;51.728;8.796;2022-09-01T07:02:46;5.77;;;2.43;;
3068;SDS011;1545;51.728;8.796;2022-09-01T07:05:17;4.57;;;2.43;;
3068;SDS011;1545;51.728;8.796;2022-09-01T07:07:46;5.93;;;2.43;;
3068;SDS011;1545;51.728;8.796;2022-09-01T07:10:15;2.63;;;2.07;;
3068;SDS011;1545;51.728;8.796;2022-09-01T07:12:46;8.57;;;2.27;;
3068;SDS011;1545;51.728;8.796;2022-09-01T07:15:12;5.53;;;2.50;;
3068;SDS011;1545;51.728;8.796;2022-09-01T07:17:41;3.57;;;2.53;;
3068;SDS011;1545;51.728;8.796;2022-09-01T07:20:07;3.83;;;2.13;;
3068;SDS011;1545;51.728;8.796;2022-09-01T07:22:35;2.73;;;2.30;;
3068;SDS011;1545;51.728;8.796;2022-09-01T07:25:00;4.13;;;2.10;;
3068;SDS011;1545;51.728;8.796;2022-09-01T07:27:26;3.03;;;2.20;;
3068;SDS011;1545;51.728;8.796;2022-09-01T07:29:52;3.37;;;2.20;;
3068;SDS011;1545;51.728;8.796;2022-09-01T07:32:20;5.83;;;2.30;;
3068;SDS011;1545;51.728;8.796;2022-09-01T07:34:45;8.30;;;2.10;;
3068;SDS011;1545;51.728;8.796;2022-09-01T07:37:11;6.30;;;2.20;;
3068;SDS011;1545;51.728;8.796;2022-09-01T07:39:37;2.90;;;1.90;;
3068;SDS011;1545;51.728;8.796;2022-09-01T07:42:10;4.00;;;2.13;;
3068;SDS011;1545;51.728;8.796;2022-09-01T07:44:36;3.60;;;2.20;;
3068;SDS011;1545;51.728;8.796;2022-09-01T07:47:02;10.83;;;2.20;;
3068;SDS011;1545;51.728;8.796;2022-09-01T07:49:32;1.97;;;1.90;;
3068;SDS011;1545;51.728;8.796;2022-09-01T07:51:57;2.80;;;2.03;;
3068;SDS011;1545;51.728;8.796;2022-09-01T07:54:25;3.90;;;2.17;;
3068;SDS011;1545;51.728;8.796;2022-09-01T07:56:51;5.73;;;2.03;;
3068;SDS011;1545;51.728;8.796;2022-09-01T07:59:19;2.33;;;1.70;;
3068;SDS011;1545;51.728;8.796;2022-09-01T08:01:45;2.23;;;2.00;;
3068;SDS011;1545;51.728;8.796;2022-09-01T08:04:11;5.87;;;2.20;;
3068;SDS011;1545;51.728;8.796;2022-09-01T08:06:36;7.40;;;2.20;;
3068;SDS011;1545;51.728;8.796;2022-09-01T08:09:02;6.93;;;2.73;;
3068;SDS011;1545;51.728;8.796;2022-09-01T08:11:31;4.27;;;3.23;;
3068;SDS011;1545;51.728;8.796;2022-09-01T08:13:57;5.90;;;3.20;;
3068;SDS011;1545;51.728;8.796;2022-09-01T08:16:24;8.83;;;2.20;;
3068;SDS011;1545;51.728;8.796;2022-09-01T08:18:51;3.83;;;2.00;;
3068;SDS011;1545;51.728;8.796;2022-09-01T08:21:18;3.60;;;2.20;;
3068;SDS011;1545;51.728;8.796;2022-09-01T08:23:47;9.13;;;2.17;;
3068;SDS011;1545;51.728;8.796;2022-09-01T08:26:15;5.27;;;2.00;;
3068;SDS011;1545;51.728;8.796;2022-09-01T08:28:41;3.85;;;2.10;;
3068;SDS011;1545;51.728;8.796;2022-09-01T08:31:11;3.63;;;2.00;;
3068;SDS011;1545;51.728;8.796;2022-09-01T08:33:40;2.90;;;1.90;;
3068;SDS011;1545;51.728;8.796;2022-09-01T08:36:06;3.22;;;2.13;;
3068;SDS011;1545;51.728;8.796;2022-09-01T08:38:33;4.72;;;2.10;;
3068;SDS011;1545;51.728;8.796;2022-09-01T08:40:59;5.10;;;2.23;;
3068;SDS011;1545;51.728;8.796;2022-09-01T08:46:25;3.25;;;2.15;;
3068;SDS011;1545;51.728;8.796;2022-09-01T08:48:55;5.35;;;2.40;;
3068;SDS011;1545;51.728;8.796;2022-09-01T08:51:29;3.58;;;2.20;;
3068;SDS011;1545;51.728;8.796;2022-09-01T08:56:48;2.92;;;2.00;;
3068;SDS011;1545;51.728;8.796;2022-09-01T08:59:18;3.15;;;2.10;;
3068;SDS011;1545;51.728;8.796;2022-09-01T09:01:48;4.30;;;2.70;;
3068;SDS011;1545;51.728;8.796;2022-09-01T09:09:32;4.00;;;2.10;;
3068;SDS011;1545;51.728;8.796;2022-09-01T09:15:00;6.75;;;2.28;;
3068;SDS011;1545;51.728;8.796;2022-09-01T09:17:45;4.25;;;1.95;;
3068;SDS011;1545;51.728;8.796;2022-09-01T09:20:17;4.35;;;1.80;;
3068;SDS011;1545;51.728;8.796;2022-09-01T09:22:43;3.35;;;2.10;;
3068;SDS011;1545;51.728;8.796;2022-09-01T09:25:11;4.85;;;2.60;;
3068;SDS011;1545;51.728;8.796;2022-09-01T09:27:41;6.10;;;2.42;;
3068;SDS011;1545;51.728;8.796;2022-09-01T09:30:12;6.37;;;3.07;;
3068;SDS011;1545;51.728;8.796;2022-09-01T09:32:45;2.63;;;1.80;;
3068;SDS011;1545;51.728;8.796;2022-09-01T09:35:26;4.27;;;2.20;;
3068;SDS011;1545;51.728;8.796;2022-09-01T09:38:13;2.10;;;1.87;;
3068;SDS011;1545;51.728;8.796;2022-09-01T09:41:19;4.93;;;2.00;;
3068;SDS011;1545;51.728;8.796;2022-09-01T09:43:45;2.73;;;2.00;;
3068;SDS011;1545;51.728;8.796;2022-09-01T09:46:33;3.27;;;1.83;;
3068;SDS011;1545;51.728;8.796;2022-09-01T09:51:42;9.17;;;2.20;;
3068;SDS011;1545;51.728;8.796;2022-09-01T09:54:22;4.90;;;2.00;;
3068;SDS011;1545;51.728;8.796;2022-09-01T10:05:00;2.73;;;1.80;;
3068;SDS011;1545;51.728;8.796;2022-09-01T10:07:45;3.93;;;2.20;;
3068;SDS011;1545;51.728;8.796;2022-09-01T10:10:53;7.47;;;2.60;;
3068;SDS011;1545;51.728;8.796;2022-09-01T10:13:13;2.97;;;2.40;;
3068;SDS011;1545;51.728;8.796;2022-09-01T10:16:04;8.40;;;2.43;;
3068;SDS011;1545;51.728;8.796;2022-09-01T10:18:41;5.93;;;2.27;;
3068;SDS011;1545;51.728;8.796;2022-09-01T10:21:20;4.40;;;2.20;;
3068;SDS011;1545;51.728;8.796;2022-09-01T10:23:50;8.27;;;2.07;;
3068;SDS011;1545;51.728;8.796;2022-09-01T10:26:24;3.60;;;2.03;;
3068;SDS011;1545;51.728;8.796;2022-09-01T10:29:00;2.87;;;2.20;;
3068;SDS011;1545;51.728;8.796;2022-09-01T10:32:07;4.03;;;2.30;;
3068;SDS011;1545;51.728;8.796;2022-09-01T10:34:36;11.53;;;2.47;;
3068;SDS011;1545;51.728;8.796;2022-09-01T10:37:04;3.00;;;1.90;;
3068;SDS011;1545;51.728;8.796;2022-09-01T10:39:30;7.50;;;2.10;;
3068;SDS011;1545;51.728;8.796;2022-09-01T10:41:57;3.43;;;2.17;;
3068;SDS011;1545;51.728;8.796;2022-09-01T10:44:35;8.30;;;2.20;;
3068;SDS011;1545;51.728;8.796;2022-09-01T10:50:08;3.67;;;2.30;;
3068;SDS011;1545;51.728;8.796;2022-09-01T10:55:20;2.87;;;2.13;;
3068;SDS011;1545;51.728;8.796;2022-09-01T10:58:01;4.43;;;2.00;;
3068;SDS011;1545;51.728;8.796;2022-09-01T11:00:47;2.90;;;1.90;;
3068;SDS011;1545;51.728;8.796;2022-09-01T11:06:04;7.73;;;2.10;;
3068;SDS011;1545;51.728;8.796;2022-09-01T11:13:45;3.77;;;2.10;;
3068;SDS011;1545;51.728;8.796;2022-09-01T11:19:14;2.47;;;1.87;;
3068;SDS011;1545;51.728;8.796;2022-09-01T11:22:01;3.33;;;1.77;;
3068;SDS011;1545;51.728;8.796;2022-09-01T11:27:10;3.10;;;2.00;;
3068;SDS011;1545;51.728;8.796;2022-09-01T11:32:26;2.87;;;2.00;;
3068;SDS011;1545;51.728;8.796;2022-09-01T11:34:57;3.00;;;2.10;;
3068;SDS011;1545;51.728;8.796;2022-09-01T11:37:27;9.60;;;2.10;;
3068;SDS011;1545;51.728;8.796;2022-09-01T11:39:54;5.10;;;2.47;;
3068;SDS011;1545;51.728;8.796;2022-09-01T11:42:25;4.93;;;2.40;;
3068;SDS011;1545;51.728;8.796;2022-09-01T11:45:13;6.47;;;2.50;;
3068;SDS011;1545;51.728;8.796;2022-09-01T11:47:43;3.70;;;2.30;;
3068;SDS011;1545;51.728;8.796;2022-09-01T11:50:24;9.70;;;1.90;;
3068;SDS011;1545;51.728;8.796;2022-09-01T11:52:53;3.17;;;2.10;;
3068;SDS011;1545;51.728;8.796;2022-09-01T11:55:31;3.83;;;1.97;;
3068;SDS011;1545;51.728;8.796;2022-09-01T11:58:10;4.57;;;2.10;;
3068;SDS011;1545;51.728;8.796;2022-09-01T12:00:38;6.43;;;2.70;;
3068;SDS011;1545;51.728;8.796;2022-09-01T12:03:18;4.63;;;2.40;;
3068;SDS011;1545;51.728;8.796;2022-09-01T12:05:47;3.20;;;2.10;;
3068;SDS011;1545;51.728;8.796;2022-09-01T12:08:18;4.40;;;2.20;;
3068;SDS011;1545;51.728;8.796;2022-09-01T12:10:45;2.77;;;1.97;;
3068;SDS011;1545;51.728;8.796;2022-09-01T12:13:22;2.23;;;2.00;;
3068;SDS011;1545;51.728;8.796;2022-09-01T12:16:07;5.93;;;2.47;;
3068;SDS011;1545;51.728;8.796;2022-09-01T12:18:43;5.00;;;2.20;;
3068;SDS011;1545;51.728;8.796;2022-09-01T12:21:33;2.60;;;1.90;;
3068;SDS011;1545;51.728;8.796;2022-09-01T12:26:41;3.43;;;2.20;;
3068;SDS011;1545;51.728;8.796;2022-09-01T12:29:08;5.70;;;2.17;;
3068;SDS011;1545;51.728;8.796;2022-09-01T12:31:35;4.10;;;2.13;;
3068;SDS011;1545;51.728;8.796;2022-09-01T12:34:01;3.03;;;2.13;;
3068;SDS011;1545;51.728;8.796;2022-09-01T12:36:32;4.67;;;2.07;;
3068;SDS011;1545;51.728;8.796;2022-09-01T12:42:04;4.87;;;2.50;;
3068;SDS011;1545;51.728;8.796;2022-09-01T12:47:02;2.60;;;2.10;;
3068;SDS011;1545;51.728;8.796;2022-09-01T12:49:39;4.33;;;2.40;;
3068;SDS011;1545;51.728;8.796;2022-09-01T12:54:40;6.80;;;2.03;;
3068;SDS011;1545;51.728;8.796;2022-09-01T12:57:05;7.17;;;2.30;;
3068;SDS011;1545;51.728;8.796;2022-09-01T12:59:31;4.10;;;2.40;;
3068;SDS011;1545;51.728;8.796;2022-09-01T13:01:57;3.30;;;2.00;;
3068;SDS011;1545;51.728;8.796;2022-09-01T13:05:16;7.87;;;2.40;;
3068;SDS011;1545;51.728;8.796;2022-09-01T13:07:57;3.23;;;2.20;;
3068;SDS011;1545;51.728;8.796;2022-09-01T13:10:35;3.70;;;2.43;;
3068;SDS011;1545;51.728;8.796;2022-09-01T13:13:06;6.60;;;2.20;;
3068;SDS011;1545;51.728;8.796;2022-09-01T13:15:34;4.17;;;2.10;;
3068;SDS011;1545;51.728;8.796;2022-09-01T13:18:02;4.80;;;2.27;;
3068;SDS011;1545;51.728;8.796;2022-09-01T13:20:28;9.80;;;2.13;;
3068;SDS011;1545;51.728;8.796;2022-09-01T13:22:53;4.13;;;2.00;;
3068;SDS011;1545;51.728;8.796;2022-09-01T13:25:20;2.83;;;2.30;;
3068;SDS011;1545;51.728;8.796;2022-09-01T13:27:47;5.27;;;2.20;;
3068;SDS011;1545;51.728;8.796;2022-09-01T13:30:14;7.80;;;2.23;;
3068;SDS011;1545;51.728;8.796;2022-09-01T13:32:42;3.17;;;2.10;;
3068;SDS011;1545;51.728;8.796;2022-09-01T13:35:10;8.47;;;2.60;;
3068;SDS011;1545;51.728;8.796;2022-09-01T13:37:41;6.73;;;2.37;;
3068;SDS011;1545;51.728;8.796;2022-09-01T13:40:06;5.07;;;2.43;;
3068;SDS011;1545;51.728;8.796;2022-09-01T13:42:39;9.20;;;2.63;;
3068;SDS011;1545;51.728;8.796;2022-09-01T13:45:08;3.97;;;2.23;;
3068;SDS011;1545;51.728;8.796;2022-09-01T13:47:37;11.93;;;2.70;;
3068;SDS011;1545;51.728;8.796;2022-09-01T13:50:03;5.37;;;2.10;;
3068;SDS011;1545;51.728;8.796;2022-09-01T13:52:29;7.70;;;2.40;;
3068;SDS011;1545;51.728;8.796;2022-09-01T13:54:54;17.43;;;2.67;;
3068;SDS011;1545;51.728;8.796;2022-09-01T13:57:20;8.03;;;2.60;;
3068;SDS011;1545;51.728;8.796;2022-09-01T13:59:45;2.97;;;2.20;;
3068;SDS011;1545;51.728;8.796;2022-09-01T14:02:11;7.43;;;2.50;;
3068;SDS011;1545;51.728;8.796;2022-09-01T14:04:36;12.50;;;2.30;;
3068;SDS011;1545;51.728;8.796;2022-09-01T14:07:02;4.10;;;2.30;;
3068;SDS011;1545;51.728;8.796;2022-09-01T14:09:27;5.13;;;2.63;;
3068;SDS011;1545;51.728;8.796;2022-09-01T14:11:53;9.33;;;2.30;;
3068;SDS011;1545;51.728;8.796;2022-09-01T14:14:20;6.83;;;2.30;;
3068;SDS011;1545;51.728;8.796;2022-09-01T14:16:45;11.30;;;2.37;;
3068;SDS011;1545;51.728;8.796;2022-09-01T14:19:11;3.00;;;2.13;;
3068;SDS011;1545;51.728;8.796;2022-09-01T14:21:37;3.50;;;2.47;;
3068;SDS011;1545;51.728;8.796;2022-09-01T14:24:03;7.73;;;2.23;;
3068;SDS011;1545;51.728;8.796;2022-09-01T14:26:29;6.83;;;2.67;;
3068;SDS011;1545;51.728;8.796;2022-09-01T14:28:55;6.40;;;2.13;;
3068;SDS011;1545;51.728;8.796;2022-09-01T14:31:21;9.07;;;2.03;;
3068;SDS011;1545;51.728;8.796;2022-09-01T14:33:47;6.07;;;2.40;;
3068;SDS011;1545;51.728;8.796;2022-09-01T14:36:17;3.67;;;2.33;;
3068;SDS011;1545;51.728;8.796;2022-09-01T14:38:44;16.97;;;2.97;;
3068;SDS011;1545;51.728;8.796;2022-09-01T14:41:13;2.27;;;1.97;;
3068;SDS011;1545;51.728;8.796;2022-09-01T14:43:40;3.47;;;2.10;;
3068;SDS011;1545;51.728;8.796;2022-09-01T14:46:07;10.57;;;2.50;;
3068;SDS011;1545;51.728;8.796;2022-09-01T14:48:34;3.53;;;2.10;;
3068;SDS011;1545;51.728;8.796;2022-09-01T14:51:00;3.27;;;2.30;;
3068;SDS011;1545;51.728;8.796;2022-09-01T14:53:27;7.10;;;2.63;;
3068;SDS011;1545;51.728;8.796;2022-09-01T14:55:54;5.67;;;2.33;;
3068;SDS011;1545;51.728;8.796;2022-09-01T14:58:20;9.37;;;2.43;;
3068;SDS011;1545;51.728;8.796;2022-09-01T15:00:46;6.27;;;2.70;;
3068;SDS011;1545;51.728;8.796;2022-09-01T15:03:12;13.17;;;2.80;;
3068;SDS011;1545;51.728;8.796;2022-09-01T15:05:37;7.90;;;2.30;;
3068;SDS011;1545;51.728;8.796;2022-09-01T15:08:03;6.30;;;2.37;;
3068;SDS011;1545;51.728;8.796;2022-09-01T15:10:32;4.10;;;2.10;;
3068;SDS011;1545;51.728;8.796;2022-09-01T15:12:59;5.63;;;2.60;;
3068;SDS011;1545;51.728;8.796;2022-09-01T15:15:25;10.30;;;2.33;;
3068;SDS011;1545;51.728;8.796;2022-09-01T15:17:52;3.87;;;2.10;;
3068;SDS011;1545;51.728;8.796;2022-09-01T15:20:19;3.40;;;2.23;;
3068;SDS011;1545;51.728;8.796;2022-09-01T15:23:04;5.03;;;2.40;;
3068;SDS011;1545;51.728;8.796;2022-09-01T15:25:30;6.60;;;2.50;;
3068;SDS011;1545;51.728;8.796;2022-09-01T15:27:56;5.53;;;2.30;;
3068;SDS011;1545;51.728;8.796;2022-09-01T15:30:21;3.63;;;2.40;;
3068;SDS011;1545;51.728;8.796;2022-09-01T15:32:48;7.00;;;2.40;;
3068;SDS011;1545;51.728;8.796;2022-09-01T15:35:16;4.47;;;2.37;;
3068;SDS011;1545;51.728;8.796;2022-09-01T15:37:44;5.37;;;2.23;;
3068;SDS011;1545;51.728;8.796;2022-09-01T15:40:11;5.57;;;2.20;;
3068;SDS011;1545;51.728;8.796;2022-09-01T15:42:36;3.13;;;2.30;;
3068;SDS011;1545;51.728;8.796;2022-09-01T15:45:03;4.47;;;2.20;;
3068;SDS011;1545;51.728;8.796;2022-09-01T15:47:32;8.60;;;2.20;;
3068;SDS011;1545;51.728;8.796;2022-09-01T15:49:58;3.50;;;2.23;;
3068;SDS011;1545;51.728;8.796;2022-09-01T15:52:23;2.97;;;2.40;;
3068;SDS011;1545;51.728;8.796;2022-09-01T15:54:51;7.00;;;2.40;;
3068;SDS011;1545;51.728;8.796;2022-09-01T15:57:16;7.23;;;2.53;;
3068;SDS011;1545;51.728;8.796;2022-09-01T15:59:42;4.80;;;2.40;;
3068;SDS011;1545;51.728;8.796;2022-09-01T16:02:08;7.50;;;2.40;;
3068;SDS011;1545;51.728;8.796;2022-09-01T16:04:34;5.80;;;2.20;;
3068;SDS011;1545;51.728;8.796;2022-09-01T16:07:00;5.73;;;2.40;;
3068;SDS011;1545;51.728;8.796;2022-09-01T16:09:26;5.23;;;2.50;;
3068;SDS011;1545;51.728;8.796;2022-09-01T16:11:52;3.53;;;2.40;;
3068;SDS011;1545;51.728;8.796;2022-09-01T16:14:18;3.33;;;2.20;;
3068;SDS011;1545;51.728;8.796;2022-09-01T16:16:52;2.70;;;2.10;;
3068;SDS011;1545;51.728;8.796;2022-09-01T16:22:20;7.83;;;2.50;;
3068;SDS011;1545;51.728;8.796;2022-09-01T16:24:47;4.80;;;2.10;;
3068;SDS011;1545;51.728;8.796;2022-09-01T16:27:17;3.37;;;2.17;;
3068;SDS011;1545;51.728;8.796;2022-09-01T16:29:52;4.40;;;2.23;;
3068;SDS011;1545;51.728;8.796;2022-09-01T16:32:20;5.33;;;2.20;;